Time;durP1;ratioP1;P1;durP2;ratioP2;P2;SDS_P1;SDS_P2;PMS_P1;PMS_P2;Temp;Humidity;BMP_temperature;BMP_pressure;BME280_temperature;BME280_humidity;BME280_pressure;Samples;Min_cycle;Max_cycle;Signal;HPM_P1;HPM_P2
2021/07/29 00:00:12;;;;;;;4.53;3.85;;;;;;;21.17;58.16;100587.06;694661;28;944;-59
2021/07/29 00:00:34;;;;;;;4.90;4.32;;;;;;;21.16;58.22;100586.22;694364;28;1340;-62
2021/07/29 00:00:56;;;;;;;4.28;3.90;;;;;;;21.15;58.13;100592.78;693921;28;23430;-59
2021/07/29 00:01:19;;;;;;;4.10;3.80;;;;;;;21.15;58.32;100590.03;692070;28;14346;-63
2021/07/29 00:01:40;;;;;;;4.00;3.60;;;;;;;21.14;58.27;100596.63;690100;28;23366;-61
2021/07/29 00:02:01;;;;;;;4.72;3.78;;;;;;;21.13;58.32;100586.72;692070;28;10905;-61
2021/07/29 00:02:25;;;;;;;7.78;4.05;;;;;;;21.13;58.33;100591.38;692090;28;1618;-60
2021/07/29 00:02:48;;;;;;;3.95;3.60;;;;;;;21.13;58.50;100589.47;692085;28;901;-59
2021/07/29 00:03:10;;;;;;;6.50;3.80;;;;;;;21.13;58.57;100591.38;692145;28;1118;-59
2021/07/29 00:03:32;;;;;;;4.18;3.83;;;;;;;21.13;58.33;100592.22;692094;28;921;-59
2021/07/29 00:03:53;;;;;;;3.97;3.67;;;;;;;21.13;58.41;100583.13;692109;28;1167;-61
2021/07/29 00:04:15;;;;;;;4.10;3.80;;;;;;;21.10;58.49;100589.97;691889;28;14244;-58
2021/07/29 00:04:36;;;;;;;4.05;3.72;;;;;;;21.12;58.48;100586.97;690976;28;30346;-61
2021/07/29 00:04:57;;;;;;;4.05;3.65;;;;;;;21.13;58.39;100588.63;690902;28;22401;-57
2021/07/29 00:05:19;;;;;;;4.75;3.75;;;;;;;21.12;58.48;100587.81;691158;28;21402;-62
2021/07/29 00:05:40;;;;;;;4.35;3.95;;;;;;;21.12;58.50;100587.81;691162;28;18561;-58
2021/07/29 00:06:02;;;;;;;4.32;3.92;;;;;;;21.11;58.58;100585.31;691291;28;22479;-59
2021/07/29 00:06:23;;;;;;;4.40;4.10;;;;;;;21.10;58.55;100581.75;690566;28;46378;-60
2021/07/29 00:06:44;;;;;;;4.45;4.05;;;;;;;21.10;58.60;100589.97;691411;28;8857;-61
2021/07/29 00:07:05;;;;;;;4.22;3.90;;;;;;;21.09;58.62;100584.75;691423;28;23542;-62
2021/07/29 00:07:26;;;;;;;4.45;4.15;;;;;;;21.09;58.62;100590.22;691145;28;23468;-59
2021/07/29 00:07:51;;;;;;;4.20;3.90;;;;;;;21.09;58.72;100591.06;691407;28;20852;-60
2021/07/29 00:08:12;;;;;;;5.15;4.20;;;;;;;21.09;58.69;100587.47;686999;28;137406;-60
2021/07/29 00:08:33;;;;;;;4.57;4.03;;;;;;;21.06;58.71;100584.16;690994;28;12454;-61
2021/07/29 00:08:54;;;;;;;4.30;3.90;;;;;;;21.08;58.79;100592.13;691301;28;23466;-59
2021/07/29 00:09:15;;;;;;;4.20;3.80;;;;;;;21.06;58.80;100586.06;691293;28;21452;-61
2021/07/29 00:09:37;;;;;;;4.45;3.90;;;;;;;21.06;58.82;100595.16;691471;28;1018;-61
2021/07/29 00:09:58;;;;;;;4.20;3.88;;;;;;;21.05;58.85;100584.41;689777;28;44103;-64
2021/07/29 00:10:20;;;;;;;4.47;3.92;;;;;;;21.05;58.94;100592.66;691491;28;15397;-57
2021/07/29 00:10:41;;;;;;;6.38;4.10;;;;;;;21.04;59.05;100586.31;691348;28;23514;-61
2021/07/29 00:11:02;;;;;;;4.57;3.97;;;;;;;21.04;58.91;100586.31;691319;28;22256;-62
2021/07/29 00:11:24;;;;;;;4.22;3.83;;;;;;;21.04;59.06;100590.97;690728;28;23551;-60
2021/07/29 00:11:45;;;;;;;5.47;4.30;;;;;;;21.03;59.06;100583.81;690048;28;44643;-59
2021/07/29 00:12:06;;;;;;;4.53;3.75;;;;;;;21.01;59.06;100583.25;690815;28;22403;-59
2021/07/29 00:12:27;;;;;;;4.10;3.80;;;;;;;21.00;59.22;100587.06;690095;28;46536;-58
2021/07/29 00:12:49;;;;;;;4.38;3.97;;;;;;;20.98;59.06;100581.81;690997;28;23480;-63
2021/07/29 00:13:11;;;;;;;4.97;4.10;;;;;;;20.99;59.07;100580.75;691054;28;23529;-59
2021/07/29 00:13:32;;;;;;;5.07;4.30;;;;;;;20.99;59.30;100582.66;690424;28;41383;-60
2021/07/29 00:13:57;;;;;;;4.15;3.80;;;;;;;20.99;59.31;100588.16;691033;28;22473;-60
2021/07/29 00:14:18;;;;;;;4.50;4.10;;;;;;;20.99;59.39;100583.50;687501;28;110983;-62
2021/07/29 00:14:46;;;;;;;4.43;4.03;;;;;;;20.98;59.45;100583.75;691395;28;22426;-61
2021/07/29 00:15:10;;;;;;;5.07;4.10;;;;;;;20.97;59.39;100582.06;686793;28;137668;-61
2021/07/29 00:15:31;;;;;;;5.15;4.10;;;;;;;20.96;59.37;100583.16;688204;28;90333;-60
2021/07/29 00:15:53;;;;;;;4.30;3.90;;;;;;;20.97;59.43;100588.41;691023;28;21513;-58
2021/07/29 00:16:15;;;;;;;4.22;3.92;;;;;;;20.97;59.46;100582.06;690925;28;21510;-61
2021/07/29 00:16:43;;;;;;;4.28;3.97;;;;;;;20.95;59.48;100582.31;686769;28;47372;-60
2021/07/29 00:17:06;;;;;;;4.63;4.00;;;;;;;20.95;59.49;100581.50;686218;28;137753;-60
2021/07/29 00:19:00;;;;;;;4.50;4.18;;;;;;;20.94;59.55;100579.81;689188;28;69457;-60
2021/07/29 00:19:04;;;;;;;4.90;4.22;;;;;;;20.93;59.63;100576.25;685972;28;137954;-59
2021/07/29 00:19:25;;;;;;;4.10;3.72;;;;;;;20.95;59.53;100584.25;686288;28;137766;-60
2021/07/29 00:19:46;;;;;;;4.32;3.88;;;;;;;20.94;59.63;100577.06;690769;28;22415;-59
2021/07/29 00:20:08;;;;;;;5.20;4.10;;;;;;;20.93;59.62;100580.94;690731;28;23483;-61
2021/07/29 00:20:30;;;;;;;4.35;3.97;;;;;;;20.92;59.59;100573.75;690429;28;44354;-60
2021/07/29 00:20:51;;;;;;;4.75;4.22;;;;;;;20.95;59.62;100578.75;690144;28;46321;-61
2021/07/29 00:21:12;;;;;;;4.57;4.07;;;;;;;20.95;59.67;100579.56;690701;28;23426;-64
2021/07/29 00:21:36;;;;;;;5.00;4.50;;;;;;;20.94;59.65;100575.19;691177;28;1842;-60
2021/07/29 00:21:59;;;;;;;4.72;4.25;;;;;;;20.96;59.60;100581.25;691688;28;15018;-58
2021/07/29 00:22:21;;;;;;;4.72;4.32;;;;;;;20.97;59.67;100576.56;691752;28;1442;-59
2021/07/29 00:22:42;;;;;;;6.10;4.25;;;;;;;20.96;59.82;100578.50;691259;28;22732;-59
2021/07/29 00:23:05;;;;;;;4.93;3.88;;;;;;;20.97;59.63;100576.56;692010;28;1404;-59
2021/07/29 00:23:26;;;;;;;4.45;4.05;;;;;;;20.96;59.72;100572.19;691756;28;1859;-60
2021/07/29 00:23:49;;;;;;;4.63;4.22;;;;;;;20.95;59.83;100576.81;691350;28;23449;-60
2021/07/29 00:24:10;;;;;;;11.32;4.40;;;;;;;20.94;59.64;100577.94;691877;28;921;-58
2021/07/29 00:24:32;;;;;;;6.40;4.28;;;;;;;20.95;59.75;100578.75;691958;28;881;-61
2021/07/29 00:24:53;;;;;;;4.53;4.13;;;;;;;20.93;59.86;100579.00;691948;28;2281;-61
2021/07/29 00:25:15;;;;;;;4.53;4.13;;;;;;;20.93;59.84;100579.00;690686;28;14842;-60
2021/07/29 00:25:37;;;;;;;4.55;4.15;;;;;;;20.93;59.69;100578.19;690339;28;47108;-57
2021/07/29 00:25:58;;;;;;;4.90;4.50;;;;;;;20.93;59.82;100570.75;690415;28;46366;-59
2021/07/29 00:26:19;;;;;;;6.30;4.15;;;;;;;20.92;59.87;100576.50;691131;28;18652;-61
2021/07/29 00:26:40;;;;;;;4.45;4.05;;;;;;;20.92;59.86;100571.00;690708;28;18487;-61
2021/07/29 00:27:03;;;;;;;4.60;4.18;;;;;;;20.91;59.86;100577.56;690889;28;19669;-63
2021/07/29 00:27:24;;;;;;;4.63;4.00;;;;;;;20.89;59.83;100577.81;689423;28;69406;-61
2021/07/29 00:27:45;;;;;;;4.70;4.20;;;;;;;20.88;59.88;100576.19;691402;28;23535;-60
2021/07/29 00:28:07;;;;;;;4.72;4.13;;;;;;;20.88;60.02;100573.44;691186;28;4055;-60
2021/07/29 00:28:28;;;;;;;5.25;4.35;;;;;;;20.87;59.88;100575.31;690475;28;21690;-64
2021/07/29 00:28:50;;;;;;;4.20;3.85;;;;;;;20.86;59.99;100572.84;690855;28;20878;-61
2021/07/29 00:29:12;;;;;;;4.40;4.00;;;;;;;20.87;59.88;100578.06;690289;28;42291;-61
2021/07/29 00:29:33;;;;;;;4.43;4.03;;;;;;;20.88;59.92;100579.75;690410;28;45333;-58
2021/07/29 00:29:56;;;;;;;4.20;3.90;;;;;;;20.88;59.84;100577.00;689872;28;43359;-62
2021/07/29 00:30:19;;;;;;;4.03;3.63;;;;;;;20.89;59.91;100572.34;687666;28;89683;-61
2021/07/29 00:30:40;;;;;;;4.40;4.00;;;;;;;20.87;60.09;100580.00;690605;28;46417;-63
2021/07/29 00:31:02;;;;;;;4.32;3.95;;;;;;;20.87;60.01;100571.75;691487;28;22426;-62
2021/07/29 00:31:28;;;;;;;4.43;4.03;;;;;;;20.86;60.06;100579.19;689602;28;46314;-62
2021/07/29 00:31:49;;;;;;;4.38;3.97;;;;;;;20.87;60.07;100577.25;686600;28;138357;-61
2021/07/29 00:32:10;;;;;;;5.35;4.20;;;;;;;20.87;60.10;100574.50;690590;28;22369;-60
2021/07/29 00:32:31;;;;;;;6.28;4.20;;;;;;;20.87;60.05;100569.03;687672;28;23770;-56
2021/07/29 00:32:54;;;;;;;4.53;3.90;;;;;;;20.87;60.02;100571.75;688995;28;974;-60
2021/07/29 00:33:24;;;;;;;4.57;4.18;;;;;;;20.87;59.89;100574.50;689696;28;59039;-64
2021/07/29 00:33:46;;;;;;;4.45;4.05;;;;;;;20.86;59.89;100575.56;691027;28;1819;-58
2021/07/29 00:34:09;;;;;;;4.43;4.10;;;;;;;20.87;60.08;100569.84;691819;28;958;-60
2021/07/29 00:34:30;;;;;;;4.38;4.03;;;;;;;20.86;59.93;100570.09;691005;28;942;-61
2021/07/29 00:34:51;;;;;;;4.32;3.88;;;;;;;20.86;60.09;100567.34;691195;28;22490;-56
2021/07/29 00:35:14;;;;;;;4.25;3.85;;;;;;;20.87;60.15;100569.84;691593;28;14245;-57
2021/07/29 00:35:36;;;;;;;4.10;3.75;;;;;;;20.87;60.10;100569.84;690637;28;37928;-59
2021/07/29 00:35:57;;;;;;;4.57;3.65;;;;;;;20.87;60.00;100569.84;691280;28;23421;-62
2021/07/29 00:36:19;;;;;;;6.88;4.13;;;;;;;20.88;60.06;100567.94;691167;28;23413;-61
2021/07/29 00:36:41;;;;;;;5.72;4.38;;;;;;;20.89;60.02;100572.34;691026;28;21297;-62
2021/07/29 00:37:03;;;;;;;5.50;4.10;;;;;;;20.88;59.98;100573.44;689663;28;46414;-61
2021/07/29 00:37:24;;;;;;;5.18;3.83;;;;;;;20.88;60.06;100570.69;690027;28;46221;-63
2021/07/29 00:37:48;;;;;;;4.60;4.30;;;;;;;20.87;60.08;100575.31;691348;28;18231;-60
2021/07/29 00:38:10;;;;;;;4.30;4.00;;;;;;;20.85;60.17;100572.00;688406;28;92277;-62
2021/07/29 00:38:33;;;;;;;4.82;4.43;;;;;;;20.86;60.07;100570.09;689555;28;46359;-64
2021/07/29 00:38:55;;;;;;;4.93;4.38;;;;;;;20.86;60.02;100576.44;689706;28;67478;-63
2021/07/29 00:39:16;;;;;;;4.70;3.80;;;;;;;20.84;60.08;100573.09;690348;28;47126;-61
2021/07/29 00:39:37;;;;;;;4.35;3.95;;;;;;;20.84;60.14;100580.50;691142;28;22482;-60
2021/07/29 00:39:58;;;;;;;4.22;3.92;;;;;;;20.84;60.08;100573.09;691965;28;3491;-58
2021/07/29 00:40:20;;;;;;;4.43;3.95;;;;;;;20.82;60.09;100572.50;691079;28;22430;-61
2021/07/29 00:40:42;;;;;;;6.25;4.22;;;;;;;20.81;60.27;100570.84;691996;28;891;-63
2021/07/29 00:41:03;;;;;;;4.82;4.07;;;;;;;20.81;60.18;100575.50;691102;28;19445;-64
2021/07/29 00:41:24;;;;;;;4.70;4.20;;;;;;;20.79;60.40;100578.50;691009;28;23422;-59
2021/07/29 00:41:47;;;;;;;5.03;3.92;;;;;;;20.78;60.29;100573.25;690375;28;23280;-59
2021/07/29 00:42:09;;;;;;;4.43;3.90;;;;;;;20.77;60.38;100575.19;690205;28;45355;-60
2021/07/29 00:42:31;;;;;;;5.45;4.30;;;;;;;20.76;60.46;100572.69;690360;28;45274;-60
2021/07/29 00:42:52;;;;;;;4.32;3.92;;;;;;;20.77;60.39;100571.59;690764;28;39905;-62
2021/07/29 00:43:16;;;;;;;4.05;3.65;;;;;;;20.77;60.31;100574.31;691598;28;951;-63
2021/07/29 00:43:37;;;;;;;4.80;4.00;;;;;;;20.77;60.42;100574.31;689203;28;47536;-59
2021/07/29 00:44:01;;;;;;;4.35;3.90;;;;;;;20.79;60.51;100572.19;692161;28;970;-63
2021/07/29 00:44:22;;;;;;;4.63;4.22;;;;;;;20.78;60.44;100578.75;689502;28;70270;-62
2021/07/29 00:44:43;;;;;;;5.10;4.10;;;;;;;20.79;60.34;100572.19;691457;28;22403;-60
2021/07/29 00:45:05;;;;;;;4.57;4.18;;;;;;;20.78;60.40;100574.06;692058;28;1036;-62
2021/07/29 00:45:26;;;;;;;6.13;3.78;;;;;;;20.78;60.36;100573.25;688680;28;67485;-62
2021/07/29 00:45:49;;;;;;;6.03;3.60;;;;;;;20.80;60.34;100568.34;691028;28;17522;-59
2021/07/29 00:46:13;;;;;;;4.35;3.95;;;;;;;20.79;60.44;100570.25;690336;28;46343;-62
2021/07/29 00:46:34;;;;;;;5.00;4.40;;;;;;;20.79;60.35;100567.53;688727;28;92329;-61
2021/07/29 00:46:55;;;;;;;4.72;3.97;;;;;;;20.79;60.28;100567.53;689604;28;41378;-61
2021/07/29 00:47:16;;;;;;;5.50;3.90;;;;;;;20.78;60.42;100576.00;691017;28;19503;-61
2021/07/29 00:47:40;;;;;;;4.13;3.80;;;;;;;20.76;60.33;100573.50;691042;28;22405;-59
2021/07/29 00:48:01;;;;;;;4.43;4.05;;;;;;;20.75;60.48;100569.09;688887;28;92354;-59
2021/07/29 00:48:23;;;;;;;4.25;3.92;;;;;;;20.75;60.44;100571.81;690024;28;20928;-62
2021/07/29 00:48:45;;;;;;;4.18;3.88;;;;;;;20.73;60.57;100575.94;691443;28;16807;-62
2021/07/29 00:49:06;;;;;;;5.03;3.88;;;;;;;20.72;60.46;100575.09;691949;28;935;-60
2021/07/29 00:49:27;;;;;;;4.82;4.18;;;;;;;20.72;60.67;100575.09;691238;28;23576;-58
2021/07/29 00:49:49;;;;;;;4.45;4.07;;;;;;;20.69;60.55;100570.94;690957;28;36241;-62
2021/07/29 00:50:13;;;;;;;4.18;3.78;;;;;;;20.68;60.73;100577.50;691550;28;2050;-61
2021/07/29 00:50:35;;;;;;;4.72;4.15;;;;;;;20.66;60.63;100563.19;689618;28;68232;-60
2021/07/29 00:50:56;;;;;;;4.70;3.90;;;;;;;20.66;60.76;100568.69;690542;28;36393;-56
2021/07/29 00:51:17;;;;;;;4.10;3.80;;;;;;;20.65;60.67;100574.41;689483;28;22402;-60
2021/07/29 00:51:39;;;;;;;4.40;3.88;;;;;;;20.64;60.86;100576.34;690903;28;23602;-61
2021/07/29 00:52:00;;;;;;;4.50;4.07;;;;;;;20.64;60.72;100575.47;689826;28;46286;-59
2021/07/29 00:52:23;;;;;;;4.63;4.22;;;;;;;20.64;60.79;100575.47;691005;28;22472;-61
2021/07/29 00:52:46;;;;;;;4.18;3.88;;;;;;;20.63;60.68;100571.91;689518;28;69450;-62
2021/07/29 00:53:09;;;;;;;4.40;4.00;;;;;;;20.63;60.75;100571.06;689779;28;70109;-61
2021/07/29 00:53:31;;;;;;;4.13;3.75;;;;;;;20.62;60.92;100572.97;691453;28;63781;-59
2021/07/29 00:53:53;;;;;;;4.25;3.88;;;;;;;20.62;61.03;100575.69;692934;28;43958;-62
2021/07/29 00:54:14;;;;;;;4.40;4.00;;;;;;;20.61;60.98;100568.56;692923;28;46356;-59
2021/07/29 00:54:35;;;;;;;4.40;4.05;;;;;;;20.60;61.01;100575.13;694013;28;11805;-61
2021/07/29 00:54:56;;;;;;;4.85;3.85;;;;;;;20.60;60.85;100568.81;693853;28;21529;-61
2021/07/29 00:55:19;;;;;;;4.22;3.92;;;;;;;20.60;60.90;100568.81;693269;28;13594;-61
2021/07/29 00:55:40;;;;;;;4.40;4.03;;;;;;;20.60;61.06;100574.31;691000;28;30818;-61
2021/07/29 00:56:04;;;;;;;4.38;3.90;;;;;;;20.60;61.05;100568.81;691926;28;904;-61
2021/07/29 00:56:26;;;;;;;4.55;4.00;;;;;;;20.60;61.10;100574.31;689132;28;69522;-61
2021/07/29 00:56:52;;;;;;;6.95;4.10;;;;;;;20.58;61.20;100568.22;689707;28;61069;-60
2021/07/29 00:57:13;;;;;;;6.15;4.20;;;;;;;20.57;61.10;100569.31;691351;28;13383;-63
2021/07/29 00:57:34;;;;;;;4.80;4.25;;;;;;;20.59;61.12;100572.63;690956;28;21344;-60
2021/07/29 00:57:57;;;;;;;4.20;3.80;;;;;;;20.59;60.96;100567.97;690736;28;43725;-59
2021/07/29 00:58:18;;;;;;;4.50;4.10;;;;;;;20.58;60.83;100569.06;689329;28;69486;-57
2021/07/29 00:58:39;;;;;;;4.15;3.85;;;;;;;20.58;60.92;100570.97;691614;28;1774;-60
2021/07/29 00:59:00;;;;;;;4.30;4.00;;;;;;;20.59;61.02;100559.75;691780;28;10533;-59
2021/07/29 00:59:22;;;;;;;4.88;4.18;;;;;;;20.60;61.08;100566.91;691177;28;24965;-60
2021/07/29 00:59:43;;;;;;;5.30;4.13;;;;;;;20.60;61.09;100569.66;690822;28;35166;-60
2021/07/29 01:00:05;;;;;;;4.65;4.20;;;;;;;20.61;61.04;100570.47;691840;28;13136;-63
2021/07/29 01:00:27;;;;;;;5.00;4.18;;;;;;;20.59;61.03;100569.88;689465;28;44414;-62
2021/07/29 01:00:49;;;;;;;4.82;4.07;;;;;;;20.60;60.92;100566.06;691397;28;16300;-59
2021/07/29 01:01:10;;;;;;;4.45;4.05;;;;;;;20.61;61.02;100565.84;689673;28;43917;-60
2021/07/29 01:01:41;;;;;;;4.13;3.83;;;;;;;20.61;60.91;100564.97;687969;28;98438;-64
2021/07/29 01:02:02;;;;;;;4.38;3.97;;;;;;;20.61;61.06;100568.56;690756;28;24300;-59
2021/07/29 01:02:24;;;;;;;4.45;4.05;;;;;;;20.61;60.86;100570.47;691544;28;1406;-60
2021/07/29 01:02:46;;;;;;;4.63;4.05;;;;;;;20.60;60.77;100566.91;691270;28;22388;-60
2021/07/29 01:03:07;;;;;;;4.60;4.00;;;;;;;20.62;61.10;100569.41;690682;28;47534;-59
2021/07/29 01:03:28;;;;;;;4.53;4.13;;;;;;;20.60;61.06;100558.66;691025;28;22475;-60
2021/07/29 01:03:49;;;;;;;4.55;4.15;;;;;;;20.60;60.93;100564.16;690556;28;20898;-59
2021/07/29 01:04:11;;;;;;;4.40;4.00;;;;;;;20.61;60.91;100568.56;691300;28;17011;-62
2021/07/29 01:04:32;;;;;;;4.40;4.00;;;;;;;20.60;60.91;100558.66;690032;28;45254;-62
2021/07/29 01:04:55;;;;;;;4.53;4.13;;;;;;;20.60;60.91;100561.41;690962;28;23488;-61
2021/07/29 01:05:16;;;;;;;4.07;3.78;;;;;;;20.60;61.12;100564.16;688951;28;69253;-59
2021/07/29 01:05:38;;;;;;;4.25;3.90;;;;;;;20.59;60.86;100559.75;690669;28;22503;-58
2021/07/29 01:05:59;;;;;;;4.28;3.95;;;;;;;20.57;61.03;100561.91;690328;28;44359;-60
2021/07/29 01:06:21;;;;;;;4.47;4.07;;;;;;;20.58;61.03;100565.47;691136;28;22385;-59
2021/07/29 01:06:42;;;;;;;4.35;3.90;;;;;;;20.58;61.00;100565.47;690305;28;45260;-59
2021/07/29 01:07:03;;;;;;;4.30;3.67;;;;;;;20.58;61.00;100560.84;691196;28;22393;-62
2021/07/29 01:07:24;;;;;;;4.40;4.00;;;;;;;20.58;61.12;100568.22;691114;28;22425;-60
2021/07/29 01:07:46;;;;;;;4.47;4.07;;;;;;;20.56;61.17;100568.47;691286;28;22411;-61
2021/07/29 01:08:07;;;;;;;4.25;3.85;;;;;;;20.56;61.06;100573.13;690536;28;46114;-59
2021/07/29 01:08:29;;;;;;;4.32;3.92;;;;;;;20.55;61.05;100563.22;689836;28;22382;-57
2021/07/29 01:09:06;;;;;;;4.90;4.18;;;;;;;20.57;61.18;100566.56;690083;28;48378;-62
2021/07/29 01:09:29;;;;;;;4.18;3.85;;;;;;;20.56;61.05;100564.91;686973;28;137525;-59
2021/07/29 01:09:50;;;;;;;4.22;3.92;;;;;;;20.55;61.15;100566.81;690544;28;38355;-59
2021/07/29 01:10:11;;;;;;;4.13;3.72;;;;;;;20.53;61.26;100568.97;690255;28;22368;-62
2021/07/29 01:10:34;;;;;;;4.35;3.97;;;;;;;20.54;61.04;100567.88;691895;28;17061;-58
2021/07/29 01:10:55;;;;;;;4.20;3.80;;;;;;;20.52;61.28;100567.31;689854;28;62299;-58
2021/07/29 01:11:16;;;;;;;4.30;3.85;;;;;;;20.52;61.27;100570.88;690467;28;22403;-61
2021/07/29 01:11:39;;;;;;;4.30;3.90;;;;;;;20.51;61.17;100569.22;691476;28;13588;-58
2021/07/29 01:12:00;;;;;;;4.63;4.20;;;;;;;20.49;61.30;100565.88;690257;28;45257;-61
2021/07/29 01:12:22;;;;;;;4.40;4.00;;;;;;;20.48;61.28;100568.88;691858;28;1462;-59
2021/07/29 01:12:45;;;;;;;4.40;4.00;;;;;;;20.48;61.41;100568.88;691892;28;1154;-61
2021/07/29 01:13:06;;;;;;;4.32;4.03;;;;;;;20.46;61.46;100568.31;690224;28;47193;-59
2021/07/29 01:13:27;;;;;;;4.32;3.92;;;;;;;20.44;61.32;100560.31;691119;28;22489;-61
2021/07/29 01:13:49;;;;;;;4.20;3.80;;;;;;;20.44;61.46;100562.22;691668;28;1930;-61
2021/07/29 01:14:11;;;;;;;4.22;3.88;;;;;;;20.43;61.45;100564.13;691136;28;22471;-62
2021/07/29 01:14:32;;;;;;;4.30;3.90;;;;;;;20.43;61.62;100558.66;689923;28;44357;-58
2021/07/29 01:14:53;;;;;;;4.20;3.70;;;;;;;20.44;61.54;100562.22;691546;28;12353;-61
2021/07/29 01:15:14;;;;;;;5.05;3.72;;;;;;;20.41;61.48;100558.06;690978;28;12580;-59
2021/07/29 01:15:36;;;;;;;4.70;3.80;;;;;;;20.42;61.58;100567.94;691021;28;12764;-60
2021/07/29 01:15:57;;;;;;;4.43;4.03;;;;;;;20.43;61.59;100566.06;690447;28;36792;-61
2021/07/29 01:16:18;;;;;;;4.88;4.38;;;;;;;20.41;61.61;100563.56;691303;28;21538;-60
2021/07/29 01:16:39;;;;;;;4.70;4.30;;;;;;;20.40;61.63;100556.41;690926;28;23575;-58
2021/07/29 01:17:01;;;;;;;4.57;4.13;;;;;;;20.39;61.63;100562.97;689693;28;43486;-59
2021/07/29 01:17:22;;;;;;;5.38;4.25;;;;;;;20.40;61.72;100566.53;690253;28;39952;-58
2021/07/29 01:17:44;;;;;;;4.47;4.07;;;;;;;20.39;61.75;100559.38;691319;28;15293;-59
2021/07/29 01:18:05;;;;;;;4.30;3.95;;;;;;;20.40;61.79;100558.31;690395;28;35471;-60
2021/07/29 01:18:27;;;;;;;4.10;3.80;;;;;;;20.40;61.59;100556.41;689831;28;21516;-59
2021/07/29 01:18:48;;;;;;;4.40;4.10;;;;;;;20.39;61.75;100562.13;690086;28;46349;-60
2021/07/29 01:19:10;;;;;;;5.07;4.00;;;;;;;20.38;61.73;100558.56;691387;28;22480;-63
2021/07/29 01:19:32;;;;;;;5.88;4.20;;;;;;;20.37;61.72;100556.88;690356;28;46252;-62
2021/07/29 01:19:53;;;;;;;6.10;4.20;;;;;;;20.36;61.67;100552.50;691982;28;872;-59
2021/07/29 01:20:23;;;;;;;4.22;3.83;;;;;;;20.37;61.72;100556.88;690798;28;1263;-61
2021/07/29 01:20:45;;;;;;;4.57;4.18;;;;;;;20.37;61.74;100561.56;689794;28;60950;-60
2021/07/29 01:21:06;;;;;;;4.70;4.20;;;;;;;20.34;61.88;100555.50;689139;28;46296;-60
2021/07/29 01:21:29;;;;;;;4.57;4.07;;;;;;;20.33;61.90;100559.31;691041;28;22402;-60
2021/07/29 01:21:50;;;;;;;5.55;4.32;;;;;;;20.32;61.91;100556.81;691894;28;908;-59
2021/07/29 01:22:11;;;;;;;5.35;3.90;;;;;;;20.32;61.92;100559.53;690982;28;19747;-59
2021/07/29 01:22:35;;;;;;;4.93;3.90;;;;;;;20.30;62.05;100559.78;691200;28;12250;-57
2021/07/29 01:22:56;;;;;;;5.43;3.85;;;;;;;20.29;62.12;100563.59;690127;28;60653;-59
2021/07/29 01:23:17;;;;;;;4.50;4.10;;;;;;;20.29;61.88;100560.03;691443;28;23451;-59
2021/07/29 01:23:38;;;;;;;4.47;4.07;;;;;;;20.28;61.98;100561.97;690767;28;23607;-60
2021/07/29 01:23:59;;;;;;;4.22;3.92;;;;;;;20.29;62.00;100562.78;690985;28;22432;-58
2021/07/29 01:24:21;;;;;;;4.60;4.20;;;;;;;20.29;62.10;100562.78;690623;28;29319;-60
2021/07/29 01:24:42;;;;;;;4.80;4.40;;;;;;;20.27;62.16;100564.94;689854;28;46278;-58
2021/07/29 01:25:05;;;;;;;5.95;4.20;;;;;;;20.28;62.09;100566.59;691845;28;1145;-59
2021/07/29 01:25:26;;;;;;;5.72;3.92;;;;;;;20.27;62.15;100560.28;689384;28;47475;-58
2021/07/29 01:25:48;;;;;;;8.05;4.00;;;;;;;20.28;62.13;100561.97;690221;28;46429;-62
2021/07/29 01:26:09;;;;;;;7.20;4.10;;;;;;;20.29;62.06;100565.53;690463;28;43504;-63
2021/07/29 01:26:31;;;;;;;4.28;3.75;;;;;;;20.27;62.06;100556.72;690229;28;45308;-62
2021/07/29 01:26:53;;;;;;;4.78;4.00;;;;;;;20.27;61.88;100559.47;690797;28;24814;-59
2021/07/29 01:27:17;;;;;;;4.50;4.10;;;;;;;20.25;62.16;100556.97;690709;28;35365;-58
2021/07/29 01:27:39;;;;;;;4.57;4.20;;;;;;;20.25;62.11;100556.09;688588;28;92289;-59
2021/07/29 01:28:00;;;;;;;4.15;3.85;;;;;;;20.25;62.10;100567.09;690366;28;45241;-59
2021/07/29 01:28:22;;;;;;;5.50;4.00;;;;;;;20.24;62.17;100558.03;690480;28;22378;-60
2021/07/29 01:28:43;;;;;;;7.78;4.38;;;;;;;20.24;62.01;100562.69;690031;28;44367;-59
2021/07/29 01:29:04;;;;;;;6.18;4.32;;;;;;;20.24;62.21;100557.22;691971;28;908;-58
2021/07/29 01:29:25;;;;;;;5.50;4.07;;;;;;;20.21;62.15;100561.25;691113;28;22389;-60
2021/07/29 01:29:48;;;;;;;4.00;3.60;;;;;;;20.22;62.32;100562.09;691266;28;23588;-59
2021/07/29 01:30:10;;;;;;;4.13;3.83;;;;;;;20.21;62.34;100557.69;689733;28;68890;-61
2021/07/29 01:30:31;;;;;;;4.57;4.05;;;;;;;20.19;62.18;100551.59;689442;28;44287;-60
2021/07/29 01:30:52;;;;;;;4.40;4.05;;;;;;;20.19;62.33;100557.94;691032;28;21006;-60
2021/07/29 01:31:14;;;;;;;4.30;3.90;;;;;;;20.19;62.45;100555.19;690598;28;21507;-59
2021/07/29 01:31:36;;;;;;;4.18;3.88;;;;;;;20.17;62.35;100555.44;690079;28;47060;-60
2021/07/29 01:31:58;;;;;;;4.20;3.90;;;;;;;20.19;62.43;100555.19;689313;28;44530;-62
2021/07/29 01:32:19;;;;;;;4.25;3.95;;;;;;;20.19;62.38;100555.19;691182;28;22570;-60
2021/07/29 01:32:40;;;;;;;4.15;3.85;;;;;;;20.19;62.38;100554.34;690756;28;23376;-61
2021/07/29 01:33:03;;;;;;;4.25;3.90;;;;;;;20.16;62.54;100555.69;691336;28;961;-59
2021/07/29 01:33:24;;;;;;;5.57;4.20;;;;;;;20.16;62.49;100552.94;690212;28;43402;-58
2021/07/29 01:33:46;;;;;;;4.57;4.03;;;;;;;20.15;62.30;100551.28;691001;28;21137;-62
2021/07/29 01:34:07;;;;;;;4.38;3.97;;;;;;;20.14;62.46;100553.19;691393;28;19294;-60
2021/07/29 01:34:28;;;;;;;4.28;3.88;;;;;;;20.15;62.54;100552.09;691751;28;1973;-58
2021/07/29 01:34:49;;;;;;;4.15;3.80;;;;;;;20.14;62.42;100550.44;691899;28;978;-59
2021/07/29 01:35:12;;;;;;;4.35;3.88;;;;;;;20.14;62.39;100552.34;691407;28;18302;-61
2021/07/29 01:35:34;;;;;;;4.70;3.90;;;;;;;20.13;62.40;100557.00;690217;28;46507;-61
2021/07/29 01:35:55;;;;;;;4.43;4.03;;;;;;;20.12;62.51;100551.75;689936;28;67549;-61
2021/07/29 01:36:16;;;;;;;5.72;4.28;;;;;;;20.10;62.65;100554.75;691209;28;22384;-61
2021/07/29 01:36:37;;;;;;;4.50;4.18;;;;;;;20.09;62.68;100552.25;690409;28;46295;-60
2021/07/29 01:36:58;;;;;;;4.72;4.32;;;;;;;20.08;62.70;100553.34;690543;28;21535;-59
2021/07/29 01:37:22;;;;;;;4.30;3.90;;;;;;;20.07;62.62;100552.50;691411;28;934;-59
2021/07/29 01:37:43;;;;;;;5.32;3.88;;;;;;;20.06;62.78;100556.34;690298;28;44188;-60
2021/07/29 01:38:04;;;;;;;5.05;4.38;;;;;;;20.06;62.82;100553.59;691576;28;18553;-62
2021/07/29 01:38:25;;;;;;;4.57;4.18;;;;;;;20.04;62.89;100550.25;690936;28;19501;-62
2021/07/29 01:38:46;;;;;;;4.45;4.05;;;;;;;20.03;63.00;100554.09;690876;28;23553;-60
2021/07/29 01:39:10;;;;;;;4.28;3.92;;;;;;;20.03;62.88;100551.34;690997;28;14214;-63
2021/07/29 01:39:32;;;;;;;4.30;3.90;;;;;;;20.02;63.05;100557.06;691128;28;24450;-56
2021/07/29 01:39:53;;;;;;;4.95;4.03;;;;;;;20.01;62.88;100558.97;690762;28;45268;-58
2021/07/29 01:40:14;;;;;;;4.20;3.80;;;;;;;20.01;63.03;100555.41;690984;28;22975;-60
2021/07/29 01:40:35;;;;;;;4.40;4.07;;;;;;;19.99;63.02;100550.97;690634;28;24268;-57
2021/07/29 01:40:57;;;;;;;4.20;3.90;;;;;;;20.01;63.42;100555.41;691263;28;13430;-60
2021/07/29 01:41:22;;;;;;;4.60;4.10;;;;;;;19.99;63.25;100550.16;689209;28;37809;-59
2021/07/29 01:41:48;;;;;;;4.20;3.90;;;;;;;19.98;63.03;100552.06;688962;28;59705;-61
2021/07/29 01:42:09;;;;;;;4.20;3.90;;;;;;;19.97;63.15;100547.66;690665;28;22495;-60
2021/07/29 01:42:30;;;;;;;4.03;3.70;;;;;;;19.98;63.09;100546.59;691065;28;23554;-60
2021/07/29 01:42:52;;;;;;;4.47;3.85;;;;;;;19.98;63.12;100551.22;690638;28;23449;-61
2021/07/29 01:43:13;;;;;;;4.32;3.92;;;;;;;19.99;63.00;100547.41;690252;28;46414;-58
2021/07/29 01:43:34;;;;;;;5.25;4.03;;;;;;;19.99;63.06;100542.75;691593;28;14364;-61
2021/07/29 01:43:55;;;;;;;4.88;4.15;;;;;;;20.00;63.17;100549.09;691519;28;11121;-60
2021/07/29 01:44:16;;;;;;;4.05;3.75;;;;;;;19.99;62.99;100542.75;691195;28;22501;-61
2021/07/29 01:44:37;;;;;;;4.10;3.80;;;;;;;20.01;63.00;100538.94;691257;28;20070;-59